Latest Weather Observations for Cunderdin Airport

IDW60801

Issued at 4:04 pm WST Sunday 19 November 2017 (issued every 30 minutes, with the page automatically refreshed every 10 minutes)

About weather observations | Map of weather stations | Latest weather observations for WA | Other Formats
Station Details ID: 010286 Name: CUNDERDIN AIRFIELD Lat: -31.62 Lon: 117.22 Height: 216.7 m
Data from the previous 72 hours. | See also: Recent months at Cunderdin Airport
Date/Time
WST
Temp
°C
App
Temp
°C
Dew
Point
°C
Rel
Hum
%
Delta-T
°C
Wind Press
QNH
hPa
Press
MSL
hPa
Rain since
9am
mm
Dir  Spd
km/h
Gust
km/h
Spd
kts
Gust
kts
19/04:00pm 29.0 25.6 5.8 23 12.3 WSW 13 22 7 12 1010.4 1009.6 0.0
19/03:30pm 29.0 25.0 5.1 22 12.5 WNW 15 22 8 12 1010.7 1009.9 0.0
19/03:00pm 29.3 26.2 5.4 22 12.6 NW 11 22 6 12 1011.0 1010.2 0.0
19/02:30pm 29.2 25.4 6.0 23 12.3 NW 15 28 8 15 1011.2 1010.4 0.0
19/02:00pm 28.7 25.0 4.2 21 12.6 NW 13 24 7 13 1011.5 1010.7 0.0
19/01:30pm 28.7 26.1 6.1 24 12.0 NW 9 17 5 9 1011.7 1010.9 0.0
19/01:00pm 27.6 24.9 5.8 25 11.5 NW 9 20 5 11 1012.2 1011.4 0.0
19/12:30pm 26.6 23.7 8.1 31 10.1 WNW 13 20 7 11 1012.5 1011.7 0.0
19/12:00pm 26.5 24.8 9.8 35 9.3 NNW 9 20 5 11 1012.8 1012.0 0.0
19/11:30am 25.5 23.5 10.1 38 8.6 NNW 11 17 6 9 1013.1 1012.3 0.0
19/11:00am 24.8 22.7 9.9 39 8.3 NE 11 20 6 11 1013.5 1012.7 0.0
19/10:30am 24.9 23.8 11.8 44 7.5 NW 9 17 5 9 1013.7 1012.9 0.0
19/10:00am 24.0 23.3 13.2 50 6.3 WNW 9 17 5 9 1014.0 1013.2 0.0
19/09:30am 22.2 21.3 12.5 54 5.6 NNE 9 17 5 9 1014.1 1013.3 0.0
19/09:00am 21.2 20.7 12.6 58 4.9 NNW 7 13 4 7 1014.2 1013.5 0.2
19/08:30am 20.1 19.7 13.1 64 4.0 NE 7 11 4 6 1014.3 1013.6 0.2
19/08:00am 18.9 18.9 13.5 71 3.1 W 6 11 3 6 1014.3 1013.6 0.2
19/07:30am 17.5 16.6 13.6 78 2.2 W 11 15 6 8 1014.3 1013.6 0.2
19/07:00am 15.9 14.9 13.4 85 1.4 W 11 13 6 7 1014.2 1013.5 0.2
19/06:30am 14.8 13.5 13.7 93 0.6 WNW 13 15 7 8 1013.9 1013.1 0.2
19/06:00am 13.4 12.2 12.8 96 0.3 W 11 13 6 7 1013.5 1012.7 0.2
19/05:30am 12.1 10.9 11.5 96 0.3 WNW 9 9 5 5 1013.1 1012.3 0.2
19/05:00am 11.4 10.5 10.8 96 0.3 NW 6 7 3 4 1012.6 1011.8 0.2
19/04:30am 11.8 12.2 11.2 96 0.3 CALM 0 9 0 5 1012.6 1011.8 0.2
19/04:00am 12.1 11.4 11.5 96 0.3 WNW 6 7 3 4 1012.5 1011.7 0.2
19/03:30am 11.5 10.0 10.7 95 0.4 WNW 9 9 5 5 1012.6 1011.8 0.2
19/03:00am 11.2 9.7 10.4 95 0.4 WNW 9 9 5 5 1012.5 1011.7 0.2
19/02:30am 11.9 12.2 11.0 94 0.5 CALM 0 0 0 0 1012.6 1011.8 0.2
19/02:00am 12.6 11.9 11.5 93 0.6 WSW 6 7 3 4 1012.6 1011.8 0.2
19/01:30am 12.9 12.6 11.6 92 0.7 WNW 4 6 2 3 1012.9 1012.1 0.2
19/01:00am 12.8 11.9 11.2 90 0.9 NW 7 9 4 5 1013.5 1012.7 0.2
19/12:30am 14.2 13.2 12.2 88 1.1 W 9 11 5 6 1013.7 1012.9 0.2
19/12:00am 14.6 12.8 12.1 85 1.4 W 13 15 7 8 1014.0 1013.2 0.2
 
Date/Time
WST
Temp
°C
App
Temp
°C
Dew
Point
°C
Rel
Hum
%
Delta-T
°C
Wind Press
QNH
hPa
Press
MSL
hPa
Rain since
9am
mm
Dir  Spd
km/h
Gust
km/h
Spd
kts
Gust
kts
18/11:30pm 14.6 12.7 11.9 84 1.5 W 13 17 7 9 1014.0 1013.2 0.2
18/11:00pm 15.0 13.5 11.8 81 1.7 W 11 17 6 9 1013.9 1013.1 0.2
18/10:30pm 15.7 13.7 11.5 76 2.3 W 13 17 7 9 1013.7 1012.9 0.2
18/10:00pm 16.5 14.1 11.4 72 2.8 WSW 15 19 8 10 1013.5 1012.7 0.2
18/09:30pm 16.8 14.4 11.5 71 2.9 W 15 19 8 10 1013.5 1012.7 0.2
18/09:00pm 17.3 14.5 11.3 68 3.3 W 17 20 9 11 1013.2 1012.4 0.2
18/08:30pm 18.2 15.0 11.3 64 3.8 W 19 26 10 14 1012.5 1011.7 0.2
18/08:00pm 18.8 15.4 10.6 59 4.5 WSW 19 24 10 13 1011.9 1011.1 0.2
18/07:30pm 19.6 15.5 10.0 54 5.2 WSW 22 28 12 15 1011.5 1010.7 0.2
18/07:00pm 20.4 15.8 9.6 50 5.8 WSW 24 32 13 17 1011.0 1010.2 0.2
18/06:30pm 21.6 16.2 9.5 46 6.6 WSW 28 35 15 19 1010.5 1009.7 0.2
18/06:00pm 22.8 17.6 8.9 41 7.5 W 26 35 14 19 1010.0 1009.1 0.2
18/05:30pm 23.8 17.4 8.6 38 8.2 W 32 41 17 22 1009.4 1008.6 0.2
18/05:00pm 24.0 17.4 8.4 37 8.4 W 33 43 18 23 1008.7 1007.9 0.2
18/04:30pm 25.7 19.1 8.7 34 9.3 WSW 33 44 18 24 1008.2 1007.4 0.2
18/04:00pm 25.0 18.9 8.1 34 9.1 W 30 43 16 23 1007.9 1007.1 0.2
18/03:30pm 26.6 20.1 8.1 31 10.1 W 32 46 17 25 1007.6 1006.8 0.2
18/03:00pm 27.0 20.8 9.4 33 9.8 W 32 44 17 24 1007.4 1006.6 0.2
18/02:30pm 26.1 19.9 7.7 31 9.9 WSW 30 43 16 23 1007.3 1006.5 0.2
18/02:10pm 25.1 19.2 9.0 36 8.8 W 30 54 16 29 1007.2 1006.4 0.2
18/02:00pm 26.6 21.5 7.6 30 10.3 W 24 41 13 22 1007.2 1006.4 0.2
18/01:30pm 27.0 21.5 7.5 29 10.5 WNW 26 41 14 22 1007.2 1006.4 0.2
18/01:00pm 26.4 21.6 8.8 33 9.7 W 24 37 13 20 1007.1 1006.3 0.2
18/12:30pm 24.6 20.0 9.7 39 8.2 W 24 35 13 19 1007.3 1006.5 0.2
18/12:00pm 24.4 20.5 9.6 39 8.2 W 20 30 11 16 1007.4 1006.6 0.2
18/11:30am 24.9 20.9 11.8 44 7.5 NW 24 39 13 21 1007.5 1006.7 0.0
18/11:00am 21.9 20.4 14.3 62 4.5 NW 15 22 8 12 1008.2 1007.4 0.0
18/10:30am 22.4 20.3 13.5 57 5.2 NNW 17 24 9 13 1008.5 1007.7 0.0
18/10:00am 21.8 19.4 13.9 61 4.6 NW 19 28 10 15 1008.6 1007.8 0.0
18/09:30am 20.8 18.4 12.5 59 4.7 NNW 17 24 9 13 1008.9 1008.1 0.0
18/09:00am 19.8 18.0 14.4 71 3.2 NNW 17 26 9 14 1008.8 1008.0 5.4
18/08:30am 19.3 18.7 15.6 79 2.2 NNW 13 20 7 11 1008.6 1007.8 5.4
18/08:00am 19.0 18.6 15.3 79 2.2 NW 11 15 6 8 1008.4 1007.6 5.4
18/07:48am 18.7 19.5 15.9 84 1.7 NNW 6 9 3 5 1008.5 1007.7 5.4
18/07:47am 18.6 19.4 15.8 84 1.7 NNW 6 11 3 6 1008.6 1007.8 5.4
18/07:30am 18.2 18.9 16.0 87 1.3 N 7 11 4 6 1008.3 1007.5 5.4
18/07:17am 18.2 18.6 16.2 88 1.2 NE 9 15 5 8 1008.0 1007.2 5.4
18/07:00am 17.8 17.6 16.7 93 0.7 NE 13 15 7 8 1007.6 1006.8 5.4
18/06:30am 16.1 15.4 15.3 95 0.5 NE 13 17 7 9 1007.7 1006.9 5.4
18/06:00am 16.1 16.6 15.5 96 0.4 NE 7 11 4 6 1007.4 1006.6 5.2
18/05:39am 15.8 16.1 15.0 95 0.5 NNE 7 9 4 5 1007.5 1006.7 5.2
18/05:30am 15.9 15.9 15.1 95 0.5 NNW 9 15 5 8 1007.6 1006.8 5.2
18/05:08am 16.4 16.8 15.4 94 0.6 N 7 9 4 5 1007.5 1006.7 2.4
18/05:00am 16.2 16.6 15.2 94 0.6 NE 7 9 4 5 1007.2 1006.4 1.6
18/04:30am 16.0 16.3 15.0 94 0.6 NE 7 11 4 6 1006.6 1005.8 1.6
18/04:00am 16.1 15.7 15.1 94 0.6 NNE 11 13 6 7 1007.0 1006.2 1.6
18/03:30am 16.2 16.6 15.2 94 0.6 NE 7 13 4 7 1006.5 1005.7 1.6
18/03:00am 16.2 16.5 14.9 92 0.8 NE 7 9 4 5 1005.8 1004.9 1.6
18/02:30am 16.4 16.7 15.1 92 0.8 NNW 7 9 4 5 1006.6 1005.8 0.6
18/02:00am 16.6 18.2 14.8 89 1.1 CALM 0 0 0 0 1006.2 1005.4 0.6
18/01:30am 16.8 17.0 14.3 85 1.4 NNW 6 6 3 3 1006.4 1005.6 0.2
18/01:00am 17.4 17.9 12.9 75 2.5 WNW 2 6 1 3 1006.3 1005.5 0.0
18/12:30am 17.4 16.7 13.1 76 2.4 WSW 9 13 5 7 1006.3 1005.5 0.0
18/12:00am 16.6 17.0 12.6 77 2.2 WSW 2 9 1 5 1006.5 1005.7 0.0
 
Date/Time
WST
Temp
°C
App
Temp
°C
Dew
Point
°C
Rel
Hum
%
Delta-T
°C
Wind Press
QNH
hPa
Press
MSL
hPa
Rain since
9am
mm
Dir  Spd
km/h
Gust
km/h
Spd
kts
Gust
kts
17/11:30pm 17.2 17.0 12.9 76 2.4 WNW 6 9 3 5 1006.6 1005.8 0.0
17/11:00pm 16.4 16.0 13.1 81 1.9 WNW 7 9 4 5 1006.8 1006.0 0.0
17/10:30pm 16.0 14.8 12.7 81 1.8 NW 11 13 6 7 1007.0 1006.2 0.0
17/10:00pm 17.1 16.7 13.0 77 2.3 NW 7 9 4 5 1006.9 1006.1 0.0
17/09:30pm 18.5 17.2 13.6 73 2.8 W 13 17 7 9 1006.6 1005.8 0.0
17/09:00pm 19.2 17.1 13.6 70 3.2 W 17 22 9 12 1007.2 1006.4 0.0
17/08:30pm 19.9 17.7 13.4 66 3.7 W 17 20 9 11 1007.1 1006.3 0.0
17/08:00pm 20.4 18.5 12.9 62 4.3 W 15 20 8 11 1006.8 1006.0 0.0
17/07:30pm 21.1 18.3 12.5 58 4.9 W 19 24 10 13 1006.8 1006.0 0.0
17/07:00pm 21.7 18.3 12.5 56 5.3 W 22 28 12 15 1006.7 1005.9 0.0
17/06:30pm 22.1 17.2 12.4 54 5.6 W 30 41 16 22 1006.3 1005.5 0.0
17/06:00pm 23.4 18.2 12.7 51 6.2 W 32 41 17 22 1005.8 1004.9 0.0
17/05:30pm 24.1 19.1 13.3 51 6.3 W 32 44 17 24 1005.4 1004.5 0.0
17/05:00pm 24.1 17.8 13.6 52 6.2 W 39 48 21 26 1005.0 1004.1 0.0
17/04:30pm 25.6 21.3 14.4 50 6.7 W 30 41 16 22 1004.3 1003.5 0.0
17/04:00pm 26.3 20.9 15.0 49 6.9 W 37 48 20 26 1004.3 1003.5 0.0
17/03:30pm 27.6 22.3 15.3 47 7.6 WSW 37 50 20 27 1003.9 1003.1 0.0
17/03:06pm 27.0 21.0 14.4 46 7.6 WNW 39 54 21 29 1003.6 1002.8 0.0
17/03:00pm 27.9 22.5 12.3 38 9.2 WNW 32 50 17 27 1003.4 1002.6 0.0
17/02:30pm 29.4 25.0 12.8 36 9.9 WNW 28 48 15 26 1003.4 1002.6 0.0
17/02:00pm 29.5 25.2 13.3 37 9.8 WNW 28 43 15 23 1003.4 1002.6 0.0
17/01:33pm 27.6 23.3 13.2 41 8.6 WNW 28 50 15 27 1003.6 1002.8 0.0
17/01:30pm 27.6 23.2 12.8 40 8.7 WNW 28 39 15 21 1003.7 1002.9 0.0
17/01:00pm 27.7 25.2 13.6 42 8.5 WNW 19 30 10 16 1003.8 1003.0 0.0
17/12:30pm 28.0 24.3 13.9 42 8.5 W 26 39 14 21 1004.1 1003.3 0.0
17/12:00pm 27.6 24.6 14.9 45 7.8 W 24 33 13 18 1004.4 1003.6 0.0
17/11:30am 26.6 23.2 14.7 48 7.2 WNW 26 41 14 22 1004.6 1003.8 0.0
17/11:00am 25.9 22.5 14.7 50 6.8 WNW 26 33 14 18 1004.8 1003.9 0.0
17/10:30am 25.4 22.2 15.4 54 6.1 WNW 26 35 14 19 1005.0 1004.1 0.0
17/10:00am 26.2 24.2 16.4 54 6.1 WNW 22 33 12 18 1005.0 1004.1 0.0
17/09:30am 23.8 21.9 16.6 64 4.4 NW 22 30 12 16 1005.0 1004.1 0.0
17/09:00am 24.7 22.9 16.9 62 4.9 NW 22 32 12 17 1005.1 1004.2 3.0
17/08:30am 22.8 21.4 17.0 70 3.6 NW 20 32 11 17 1005.0 1004.1 3.0
17/08:00am 21.6 20.5 17.2 76 2.7 WNW 19 22 10 12 1005.1 1004.2 3.0
17/07:30am 20.7 21.9 17.3 81 2.1 W 7 13 4 7 1004.5 1003.7 3.0
17/07:27am 20.5 21.3 17.3 82 2.0 W 9 15 5 8 1004.8 1003.9 3.0
17/07:00am 20.7 21.1 18.1 85 1.6 NW 13 19 7 10 1005.5 1004.6 3.0
17/06:48am 19.5 20.4 17.5 88 1.2 NW 9 15 5 8 1005.1 1004.2 3.0
17/06:30am 19.2 19.4 17.7 91 0.9 NW 13 17 7 9 1005.7 1004.8 3.0
17/06:00am 18.7 19.7 17.7 94 0.6 NW 9 13 5 7 1005.3 1004.4 3.0
17/05:30am 18.6 18.9 17.8 95 0.5 W 13 17 7 9 1005.1 1004.2 3.0
17/05:00am 18.4 19.3 17.6 95 0.5 NNW 9 11 5 6 1004.5 1003.7 3.0
17/04:30am 18.2 19.3 17.2 94 0.6 NNW 7 9 4 5 1004.4 1003.6 3.0
17/04:00am 18.6 18.8 17.6 94 0.6 WNW 13 17 7 9 1004.4 1003.6 3.0
17/03:30am 18.6 19.8 17.4 93 0.7 WNW 7 9 4 5 1004.2 1003.4 3.0
17/03:00am 18.9 20.3 17.7 93 0.7 WSW 7 11 4 6 1004.3 1003.5 3.0
17/02:30am 18.9 20.4 17.6 92 0.8 SSW 6 7 3 4 1004.1 1003.3 3.0
17/02:00am 19.8 21.2 17.9 89 1.2 E 7 11 4 6 1003.8 1003.0 3.0
17/01:30am 20.1 20.9 18.2 89 1.2 E 11 15 6 8 1004.2 1003.4 3.0
17/01:00am 20.0 21.5 18.0 88 1.3 E 7 9 4 5 1004.2 1003.4 3.0
17/12:30am 20.3 21.8 18.1 87 1.4 SW 7 13 4 7 1004.4 1003.6 3.0
17/12:00am 20.9 22.4 17.7 82 2.0 NW 6 9 3 5 1004.5 1003.7 3.0
 
Date/Time
WST
Temp
°C
App
Temp
°C
Dew
Point
°C
Rel
Hum
%
Delta-T
°C
Wind Press
QNH
hPa
Press
MSL
hPa
Rain since
9am
mm
Dir  Spd
km/h
Gust
km/h
Spd
kts
Gust
kts
16/11:30pm 21.0 22.0 18.6 86 1.5 NNW 11 15 6 8 1005.2 1004.3 3.0
16/11:00pm 21.4 21.4 18.2 82 2.0 N 15 20 8 11 1005.9 1005.0 3.0
16/10:30pm 22.6 21.0 18.4 77 2.7 N 24 35 13 19 1007.1 1006.3 3.0
16/10:28pm 22.8 21.5 18.1 75 3.0 N 22 35 12 19 1007.1 1006.3 3.0
16/10:00pm 21.1 23.1 19.2 89 1.2 NNW 7 9 4 5 1006.7 1005.9 3.0
16/09:30pm 21.2 22.4 19.1 88 1.3 NNE 11 17 6 9 1006.5 1005.7 3.0
16/09:00pm 21.9 24.0 19.3 85 1.7 SE 7 11 4 6 1006.0 1005.1 3.0
16/08:30pm 21.9 23.8 19.8 88 1.4 NE 9 11 5 6 1006.1 1005.2 3.0
16/08:00pm 22.0 23.5 19.7 87 1.5 NE 11 13 6 7 1005.8 1004.9 3.0
16/07:30pm 22.1 23.5 19.6 86 1.6 NE 11 15 6 8 1005.7 1004.8 3.0
16/07:00pm 22.2 23.2 19.4 84 1.8 SW 13 17 7 9 1005.4 1004.5 2.8
16/06:30pm 21.6 21.3 19.2 86 1.5 SW 19 24 10 13 1004.9 1004.0 2.8
16/06:18pm 21.6 20.5 18.6 83 1.9 WSW 22 32 12 17 1004.9 1004.0 2.8
16/06:13pm 21.6 19.7 18.6 83 1.9 WNW 26 39 14 21 1005.7 1004.8 2.6
16/06:00pm 21.2 14.7 18.4 84 1.8 WNW 50 76 27 41 1005.8 1004.9 2.0
16/05:58pm 21.4 15.4 18.6 84 1.8 WNW 48 76 26 41 1005.8 1004.9 0.8
16/05:55pm 23.5 18.7 17.5 69 3.8 NW 39 63 21 34 1005.7 1004.8 0.0
16/05:54pm 24.7 20.0 16.9 62 4.9 NW 37 63 20 34 1005.7 1004.8 0.0
16/05:50pm 30.4 25.8 12.3 33 10.7 NNW 28 48 15 26 1004.5 1003.7 0.0
16/05:30pm 33.8 29.1 9.1 22 14.1 N 24 39 13 21 1002.9 1002.1 0.0
16/05:00pm 34.0 28.2 9.3 22 14.2 NNE 30 39 16 21 1003.3 1002.5 0.0
16/04:30pm 34.6 29.5 9.1 21 14.6 N 26 35 14 19 1003.7 1002.9 0.0

Other Formats:

Comma delimited format used in spreadsheet applications
http://www.bom.gov.au/fwo/IDW60801/IDW60801.95625.axf

JavaScript Object Notation format (JSON) in row-major order
http://www.bom.gov.au/fwo/IDW60801/IDW60801.95625.json